Time;durP1;ratioP1;P1;durP2;ratioP2;P2;SDS_P1;SDS_P2;PMS_P1;PMS_P2;Temp;Humidity;BMP_temperature;BMP_pressure;BME280_temperature;BME280_humidity;BME280_pressure;Samples;Min_cycle;Max_cycle;Signal;HPM_P1;HPM_P2
2021/12/10 00:00:32;;;;;;;7.93;2.80;;;2.50;99.90;;;;;;5076387;28;20033;-73
2021/12/10 00:02:59;;;;;;;7.82;2.97;;;2.50;99.90;;;;;;5076182;28;20037;-73
2021/12/10 00:05:30;;;;;;;5.93;2.90;;;2.50;99.90;;;;;;5078468;28;20037;-74
2021/12/10 00:07:56;;;;;;;10.65;2.90;;;2.50;99.90;;;;;;5091347;28;20026;-73
2021/12/10 00:10:29;;;;;;;10.20;3.20;;;2.50;99.90;;;;;;5076337;28;20034;-73
2021/12/10 00:12:55;;;;;;;10.63;3.03;;;2.50;99.90;;;;;;5069878;28;20485;-73
2021/12/10 00:15:28;;;;;;;8.20;3.00;;;2.50;99.90;;;;;;5076629;28;20043;-73
2021/12/10 00:17:55;;;;;;;7.80;2.95;;;2.50;99.90;;;;;;5073737;28;20018;-73
2021/12/10 00:20:25;;;;;;;8.07;2.80;;;2.40;99.90;;;;;;5070296;28;20110;-73
2021/12/10 00:22:57;;;;;;;8.88;2.60;;;2.40;99.90;;;;;;5075989;28;20524;-73
2021/12/10 00:25:36;;;;;;;7.38;2.10;;;2.40;99.90;;;;;;5076841;28;20451;-73
2021/12/10 00:28:15;;;;;;;8.77;2.35;;;2.40;99.90;;;;;;5064710;28;20194;-73
2021/12/10 00:31:14;;;;;;;7.90;2.47;;;2.40;99.90;;;;;;5091099;28;20030;-73
2021/12/10 00:33:54;;;;;;;9.25;2.67;;;2.40;99.90;;;;;;5092236;28;20050;-73
2021/12/10 00:36:20;;;;;;;6.03;2.20;;;2.40;99.90;;;;;;5076356;28;20026;-73
2021/12/10 00:38:46;;;;;;;6.72;2.30;;;2.40;99.90;;;;;;5072929;28;20401;-73
2021/12/10 00:41:12;;;;;;;9.23;2.40;;;2.40;99.90;;;;;;5055926;28;20030;-73
2021/12/10 00:43:39;;;;;;;6.00;2.00;;;2.40;99.90;;;;;;5075925;28;20586;-73
2021/12/10 00:46:05;;;;;;;5.70;2.20;;;2.40;99.90;;;;;;5059496;28;20026;-73
2021/12/10 00:48:30;;;;;;;7.53;2.05;;;2.50;99.90;;;;;;5065094;28;20092;-73
2021/12/10 00:50:58;;;;;;;6.38;2.38;;;2.40;99.90;;;;;;5074658;28;20064;-73
2021/12/10 00:53:25;;;;;;;9.48;1.98;;;2.40;99.90;;;;;;5068151;28;20034;-73
2021/12/10 00:55:51;;;;;;;5.07;2.25;;;2.50;99.90;;;;;;5070946;28;20071;-73
2021/12/10 00:58:18;;;;;;;4.78;2.03;;;2.50;99.90;;;;;;5074806;28;20038;-73
2021/12/10 01:00:58;;;;;;;4.95;2.13;;;2.50;99.90;;;;;;5076297;28;20026;-73
2021/12/10 01:03:29;;;;;;;8.50;2.38;;;2.40;99.90;;;;;;5074968;28;20029;-73
2021/12/10 01:06:00;;;;;;;7.25;2.05;;;2.50;99.90;;;;;;5069484;28;20070;-73
2021/12/10 01:08:27;;;;;;;5.93;1.85;;;2.50;99.90;;;;;;5073691;28;20018;-73
2021/12/10 01:11:26;;;;;;;5.05;2.05;;;2.40;99.90;;;;;;5075364;28;20026;-73
2021/12/10 01:13:56;;;;;;;7.57;2.35;;;2.40;99.90;;;;;;5071736;28;20109;-73
2021/12/10 01:25:04;;;;;;;5.43;2.03;;;2.40;99.90;;;;;;5007812;28;20087;-73
2021/12/10 01:27:33;;;;;;;6.50;1.98;;;2.30;99.90;;;;;;5057570;28;20437;-73
2021/12/10 01:30:24;;;;;;;9.35;2.08;;;2.30;99.90;;;;;;5075599;28;20022;-73
2021/12/10 01:33:00;;;;;;;10.70;2.15;;;2.30;99.90;;;;;;5075912;28;20048;-73
2021/12/10 01:35:31;;;;;;;4.82;2.03;;;2.30;99.90;;;;;;5073194;28;20512;-73
2021/12/10 01:37:58;;;;;;;6.32;1.90;;;2.30;99.90;;;;;;5069591;28;20432;-73
2021/12/10 01:40:27;;;;;;;6.43;1.92;;;2.30;99.90;;;;;;5074412;28;20026;-73
2021/12/10 01:43:01;;;;;;;7.65;1.95;;;2.20;99.90;;;;;;5075743;28;20030;-73
2021/12/10 01:45:30;;;;;;;6.30;1.77;;;2.20;99.90;;;;;;5075154;28;20018;-73
2021/12/10 01:48:00;;;;;;;8.88;2.10;;;2.20;99.90;;;;;;5058129;28;20030;-73
2021/12/10 01:50:27;;;;;;;9.38;2.40;;;2.20;99.90;;;;;;5058387;28;20079;-74
2021/12/10 01:52:56;;;;;;;8.40;2.50;;;2.10;99.90;;;;;;5065181;28;20113;-73
2021/12/10 01:55:23;;;;;;;4.18;2.10;;;2.10;99.90;;;;;;5074146;28;20050;-73
2021/12/10 01:57:50;;;;;;;7.53;1.92;;;2.10;99.90;;;;;;5072028;28;20029;-73
2021/12/10 02:00:19;;;;;;;6.50;2.10;;;2.10;99.90;;;;;;5073493;28;20397;-73
2021/12/10 02:02:46;;;;;;;8.15;2.08;;;2.10;99.90;;;;;;5075246;28;20513;-73
2021/12/10 02:05:13;;;;;;;8.57;2.53;;;2.10;99.90;;;;;;5075008;28;20030;-73
2021/12/10 02:07:39;;;;;;;5.68;2.15;;;2.00;99.90;;;;;;5057953;28;20022;-73
2021/12/10 02:10:08;;;;;;;4.95;1.90;;;2.00;99.90;;;;;;5060229;28;20104;-73
2021/12/10 02:12:34;;;;;;;3.20;1.70;;;2.00;99.90;;;;;;5074860;28;20072;-73
2021/12/10 02:15:02;;;;;;;6.93;2.30;;;2.00;99.90;;;;;;5074819;28;20056;-73
2021/12/10 02:17:34;;;;;;;6.97;1.98;;;1.90;99.90;;;;;;5036291;28;20478;-73
2021/12/10 02:20:28;;;;;;;5.13;2.10;;;1.90;99.90;;;;;;5075332;28;20033;-73
2021/12/10 02:22:54;;;;;;;4.13;1.70;;;1.90;99.90;;;;;;5074599;28;20191;-73
2021/12/10 02:25:25;;;;;;;5.88;1.85;;;1.90;99.90;;;;;;5075190;28;20034;-73
2021/12/10 02:27:51;;;;;;;6.05;1.90;;;1.90;99.90;;;;;;5071338;28;20040;-73
2021/12/10 02:30:18;;;;;;;5.18;2.05;;;1.80;99.90;;;;;;5074797;28;20059;-73
2021/12/10 02:32:44;;;;;;;6.53;2.25;;;1.80;99.90;;;;;;5045596;28;20026;-73
2021/12/10 02:35:12;;;;;;;5.82;2.17;;;1.80;99.90;;;;;;5066603;28;20029;-73
2021/12/10 02:37:40;;;;;;;8.00;2.22;;;1.80;99.90;;;;;;5074626;28;20057;-73
2021/12/10 02:40:08;;;;;;;5.82;1.95;;;1.80;99.90;;;;;;5074560;28;20021;-73
2021/12/10 02:42:34;;;;;;;7.50;1.80;;;1.70;99.90;;;;;;5070800;28;20040;-73
2021/12/10 02:45:00;;;;;;;8.45;1.92;;;1.70;99.90;;;;;;5066956;28;20014;-73
2021/12/10 02:47:26;;;;;;;6.13;1.80;;;1.60;99.90;;;;;;5074195;28;20030;-73
2021/12/10 02:49:51;;;;;;;6.80;1.83;;;1.60;99.90;;;;;;5074670;28;20040;-73
2021/12/10 02:52:19;;;;;;;4.00;1.45;;;1.50;99.90;;;;;;5074629;28;20076;-73
2021/12/10 02:54:45;;;;;;;3.83;1.75;;;1.50;99.90;;;;;;5072343;28;20045;-73
2021/12/10 02:57:15;;;;;;;4.40;1.73;;;1.40;99.90;;;;;;5066223;28;20022;-73
2021/12/10 02:59:42;;;;;;;6.82;2.03;;;1.40;99.90;;;;;;5074263;28;20022;-73
2021/12/10 03:02:13;;;;;;;5.30;2.15;;;1.40;99.90;;;;;;5062307;28;20030;-73
2021/12/10 03:04:38;;;;;;;3.35;1.75;;;1.30;99.90;;;;;;5087697;28;20404;-73
2021/12/10 03:07:12;;;;;;;4.90;2.05;;;1.30;99.90;;;;;;5075247;28;20390;-73
2021/12/10 03:09:39;;;;;;;8.57;1.70;;;1.30;99.90;;;;;;5077983;28;20022;-73
2021/12/10 03:12:06;;;;;;;3.17;1.48;;;1.30;99.90;;;;;;5075566;28;20064;-73
2021/12/10 03:14:35;;;;;;;6.43;1.70;;;1.20;99.90;;;;;;5076688;28;20026;-73
2021/12/10 03:17:05;;;;;;;5.25;1.77;;;1.20;99.90;;;;;;5077114;28;20393;-73
2021/12/10 03:19:32;;;;;;;2.72;1.50;;;1.20;99.90;;;;;;5077293;28;20030;-73
2021/12/10 03:21:58;;;;;;;6.47;1.48;;;1.20;99.90;;;;;;5086138;28;20595;-73
2021/12/10 03:24:27;;;;;;;3.83;1.55;;;1.20;99.90;;;;;;5063488;28;20022;-73
2021/12/10 03:26:54;;;;;;;4.10;1.75;;;1.20;99.90;;;;;;5079742;28;20037;-73
2021/12/10 03:29:22;;;;;;;3.50;1.65;;;1.10;99.90;;;;;;5084999;28;20162;-73
2021/12/10 03:31:48;;;;;;;4.28;1.73;;;1.10;99.90;;;;;;5067122;28;20114;-73
2021/12/10 03:34:14;;;;;;;4.57;1.40;;;1.10;99.90;;;;;;5092251;22;20055;-70
2021/12/10 03:36:45;;;;;;;6.22;1.70;;;1.10;99.90;;;;;;5076858;28;20086;-70
2021/12/10 03:39:13;;;;;;;4.90;1.63;;;1.00;99.90;;;;;;5074488;28;20026;-70
2021/12/10 03:41:39;;;;;;;6.30;1.80;;;1.00;99.90;;;;;;5072158;28;20485;-71
2021/12/10 03:44:05;;;;;;;9.05;2.17;;;0.90;99.90;;;;;;5074025;28;20037;-70
2021/12/10 03:46:31;;;;;;;4.57;1.80;;;0.90;99.90;;;;;;5077272;28;20044;-70
2021/12/10 03:48:59;;;;;;;4.10;1.70;;;0.90;99.90;;;;;;5076576;28;20026;-70
2021/12/10 03:51:25;;;;;;;4.35;1.58;;;0.90;99.90;;;;;;5071995;28;20030;-70
2021/12/10 03:53:51;;;;;;;2.00;1.52;;;0.90;99.90;;;;;;5068202;28;20546;-70
2021/12/10 03:56:21;;;;;;;4.93;1.70;;;0.90;99.90;;;;;;5077189;28;20126;-70
2021/12/10 03:58:48;;;;;;;5.13;1.77;;;0.90;99.90;;;;;;5005129;28;20065;-70
2021/12/10 04:01:19;;;;;;;7.93;1.90;;;0.90;99.90;;;;;;5004168;28;20109;-70
2021/12/10 04:03:48;;;;;;;3.03;1.75;;;0.80;99.90;;;;;;5069139;28;20072;-70
2021/12/10 04:06:15;;;;;;;4.00;1.67;;;0.90;99.90;;;;;;5063307;28;20473;-70
2021/12/10 04:08:41;;;;;;;3.75;1.83;;;0.80;99.90;;;;;;5067095;28;20149;-70
2021/12/10 04:11:08;;;;;;;3.92;1.70;;;0.80;99.90;;;;;;5075818;28;20485;-70
2021/12/10 04:13:34;;;;;;;6.85;1.80;;;0.80;99.90;;;;;;5070018;28;20084;-70
2021/12/10 04:16:00;;;;;;;5.90;1.85;;;0.80;99.90;;;;;;5071752;28;20030;-70
2021/12/10 04:18:26;;;;;;;2.85;2.00;;;0.80;99.90;;;;;;5075226;28;20026;-70
2021/12/10 04:20:52;;;;;;;6.05;1.80;;;0.80;99.90;;;;;;5063153;28;20036;-70
2021/12/10 04:23:20;;;;;;;5.28;1.65;;;0.80;99.90;;;;;;5071785;28;20040;-70
2021/12/10 04:25:46;;;;;;;6.80;1.98;;;0.70;99.90;;;;;;5061606;28;20621;-70
2021/12/10 04:28:17;;;;;;;5.20;1.98;;;0.70;99.90;;;;;;5075334;28;20052;-70
2021/12/10 04:30:47;;;;;;;3.63;1.85;;;0.70;99.90;;;;;;5074570;28;20037;-70
2021/12/10 04:33:16;;;;;;;4.35;1.95;;;0.60;99.90;;;;;;5075559;28;20042;-70
2021/12/10 04:35:43;;;;;;;8.45;1.90;;;0.50;99.90;;;;;;5076231;28;20562;-70
2021/12/10 04:38:10;;;;;;;3.25;1.98;;;0.50;99.90;;;;;;5075527;28;20477;-70
2021/12/10 04:40:36;;;;;;;4.85;1.70;;;0.50;99.90;;;;;;5074446;28;20022;-70
2021/12/10 04:43:02;;;;;;;3.08;2.20;;;0.40;99.90;;;;;;5057640;28;20026;-70
2021/12/10 04:45:28;;;;;;;3.03;2.03;;;0.40;99.90;;;;;;5076297;28;20106;-70
2021/12/10 04:47:54;;;;;;;4.43;1.90;;;0.40;99.90;;;;;;5071332;28;20113;-70
2021/12/10 04:50:24;;;;;;;4.13;2.10;;;0.40;99.90;;;;;;5075195;28;20025;-69
2021/12/10 04:52:50;;;;;;;5.88;2.38;;;0.30;99.90;;;;;;5069286;28;20116;-69
2021/12/10 04:55:17;;;;;;;2.75;2.25;;;0.30;99.90;;;;;;5074625;28;20163;-70
2021/12/10 04:57:43;;;;;;;6.57;2.50;;;0.30;99.90;;;;;;5075013;28;20456;-70
2021/12/10 05:00:17;;;;;;;4.85;2.50;;;0.40;99.90;;;;;;5067262;28;20481;-70
2021/12/10 05:02:44;;;;;;;9.32;2.60;;;0.30;99.90;;;;;;5071895;28;20059;-70
2021/12/10 05:05:11;;;;;;;6.63;2.88;;;0.30;99.90;;;;;;5074895;28;20018;-71
2021/12/10 05:07:38;;;;;;;6.72;2.30;;;0.30;99.90;;;;;;5074532;28;20022;-70
2021/12/10 05:10:10;;;;;;;8.43;2.47;;;0.30;99.90;;;;;;5073108;28;20018;-70
2021/12/10 05:12:36;;;;;;;;;;;0.40;99.90;;;;;;5068428;28;20034;-70
2021/12/10 05:15:06;;;;;;;5.85;2.25;;;0.30;99.90;;;;;;5075266;28;19910;-70
2021/12/10 05:17:34;;;;;;;4.82;2.25;;;0.40;99.90;;;;;;5073142;28;20050;-69
2021/12/10 05:20:05;;;;;;;6.82;2.78;;;0.40;99.90;;;;;;5074352;28;20049;-70
2021/12/10 05:22:31;;;;;;;8.07;2.72;;;0.30;99.90;;;;;;5070964;28;20496;-70
2021/12/10 05:24:56;;;;;;;5.70;2.85;;;0.30;99.90;;;;;;5061995;28;20025;-70
2021/12/10 05:27:22;;;;;;;9.75;3.08;;;0.30;99.90;;;;;;5074903;28;20049;-70
2021/12/10 05:29:48;;;;;;;7.05;3.00;;;0.30;99.90;;;;;;5075298;28;20028;-70
2021/12/10 05:32:16;;;;;;;5.57;3.03;;;0.30;99.90;;;;;;5075732;28;20494;-69
2021/12/10 05:34:43;;;;;;;8.63;2.88;;;0.30;99.90;;;;;;5068082;28;20034;-70
2021/12/10 05:37:10;;;;;;;7.07;2.97;;;0.20;99.90;;;;;;5072159;28;20106;-70
2021/12/10 05:39:35;;;;;;;6.97;2.88;;;0.20;99.90;;;;;;5076400;28;20034;-71
2021/12/10 05:42:04;;;;;;;7.07;2.88;;;0.30;99.90;;;;;;5075745;28;20057;-71
2021/12/10 05:44:29;;;;;;;6.43;3.20;;;0.30;99.90;;;;;;5075703;28;20125;-70
2021/12/10 05:46:55;;;;;;;7.28;3.33;;;0.30;99.90;;;;;;5075110;28;20105;-70
2021/12/10 05:49:21;;;;;;;6.25;3.13;;;0.30;99.90;;;;;;5075744;28;20053;-70
2021/12/10 05:51:47;;;;;;;6.35;3.22;;;0.30;99.90;;;;;;5074188;28;20441;-69
2021/12/10 05:54:13;;;;;;;7.70;3.42;;;0.30;99.90;;;;;;5081954;28;20016;-71
2021/12/10 05:56:38;;;;;;;6.60;3.75;;;0.30;99.90;;;;;;5069729;28;20034;-71
2021/12/10 05:59:05;;;;;;;5.38;3.70;;;0.30;99.90;;;;;;5070807;28;20033;-71
2021/12/10 06:01:32;;;;;;;11.70;4.13;;;0.30;99.90;;;;;;5075990;28;20026;-71
2021/12/10 06:03:57;;;;;;;8.98;4.75;;;0.30;99.90;;;;;;5075615;28;20032;-71
2021/12/10 06:06:30;;;;;;;10.35;5.03;;;0.30;99.90;;;;;;5075794;28;20052;-71
2021/12/10 06:08:59;;;;;;;8.93;4.82;;;0.20;99.90;;;;;;5074449;28;20054;-71
2021/12/10 06:11:26;;;;;;;11.02;5.78;;;0.20;99.90;;;;;;5074354;28;20121;-71
2021/12/10 06:13:52;;;;;;;12.50;6.45;;;0.10;99.90;;;;;;5074726;28;20030;-71
2021/12/10 06:16:18;;;;;;;13.93;6.60;;;0.10;99.90;;;;;;5076272;28;20030;-71
2021/12/10 06:18:46;;;;;;;11.52;6.60;;;0.10;99.90;;;;;;5075324;28;20493;-73
2021/12/10 06:21:12;;;;;;;13.90;7.07;;;0.10;99.90;;;;;;5074661;28;20038;-71
2021/12/10 06:23:39;;;;;;;12.30;6.47;;;0.10;99.90;;;;;;5072808;28;20026;-71
2021/12/10 06:26:05;;;;;;;12.02;7.10;;;0.10;99.90;;;;;;5066355;28;20026;-71
2021/12/10 06:28:32;;;;;;;13.18;6.60;;;0.10;99.90;;;;;;5069282;28;20026;-71
2021/12/10 06:30:59;;;;;;;11.93;7.15;;;0.10;99.90;;;;;;5075658;28;20030;-71
2021/12/10 06:33:28;;;;;;;14.35;7.32;;;0.10;99.90;;;;;;5074777;28;20075;-71
2021/12/10 06:35:55;;;;;;;19.10;8.80;;;0.10;99.90;;;;;;5075739;28;20124;-72
2021/12/10 06:38:22;;;;;;;15.05;8.40;;;0.00;99.90;;;;;;5069224;28;20026;-71
2021/12/10 06:40:49;;;;;;;15.13;8.07;;;0.00;99.90;;;;;;5077183;28;20021;-72
2021/12/10 06:43:16;;;;;;;17.88;8.95;;;0.00;99.90;;;;;;5073438;28;20022;-71
2021/12/10 06:45:43;;;;;;;18.52;9.23;;;0.00;99.90;;;;;;5069727;28;20026;-71
2021/12/10 06:48:10;;;;;;;20.50;9.73;;;0.00;99.90;;;;;;5075404;28;20037;-71
2021/12/10 06:50:40;;;;;;;17.52;8.50;;;0.00;99.90;;;;;;5069209;28;20022;-73
2021/12/10 06:53:06;;;;;;;17.48;9.90;;;0.00;99.90;;;;;;5078387;28;20021;-71
2021/12/10 06:55:33;;;;;;;16.05;8.32;;;0.00;99.90;;;;;;5006638;28;20396;-70
2021/12/10 06:57:59;;;;;;;20.85;9.80;;;0.00;99.90;;;;;;5074097;28;20026;-70
2021/12/10 07:00:40;;;;;;;20.60;10.35;;;0.00;99.90;;;;;;5078903;28;20109;-70
2021/12/10 07:03:06;;;;;;;18.80;9.48;;;0.10;99.90;;;;;;5079365;28;20030;-70
2021/12/10 07:05:32;;;;;;;17.80;9.15;;;0.10;99.90;;;;;;5079787;28;20055;-70
2021/12/10 07:07:58;;;;;;;16.10;8.70;;;0.10;99.90;;;;;;5078260;28;20047;-70
2021/12/10 07:10:24;;;;;;;16.00;8.90;;;0.10;99.90;;;;;;5078416;28;20157;-69
2021/12/10 07:12:51;;;;;;;15.73;8.70;;;0.10;99.90;;;;;;5079129;28;20071;-70
2021/12/10 07:15:17;;;;;;;16.00;8.18;;;0.00;99.90;;;;;;5078985;28;20126;-70
2021/12/10 07:17:47;;;;;;;16.10;8.80;;;0.00;99.90;;;;;;5077744;28;20037;-70
2021/12/10 07:20:15;;;;;;;18.20;9.30;;;0.00;99.90;;;;;;5092144;28;20489;-70
2021/12/10 07:22:41;;;;;;;19.50;9.75;;;0.00;99.90;;;;;;5067731;28;20034;-70
2021/12/10 07:25:08;;;;;;;17.75;9.60;;;-0.10;99.90;;;;;;5078611;28;21710;-70
2021/12/10 07:27:34;;;;;;;17.67;9.70;;;-0.10;99.90;;;;;;5009386;28;20037;-69
2021/12/10 07:30:00;;;;;;;17.23;9.90;;;-0.10;99.90;;;;;;5071876;28;20412;-70
2021/12/10 07:32:26;;;;;;;17.05;9.63;;;-0.10;99.90;;;;;;5068583;28;20041;-69
2021/12/10 07:34:52;;;;;;;20.00;9.13;;;-0.10;99.90;;;;;;5060394;28;20038;-70
2021/12/10 07:37:17;;;;;;;18.45;9.27;;;-0.10;99.90;;;;;;5062712;28;20458;-69
2021/12/10 07:39:43;;;;;;;18.02;9.55;;;0.00;99.90;;;;;;5078144;28;20034;-70
2021/12/10 07:42:09;;;;;;;18.27;9.35;;;0.00;99.90;;;;;;5010425;28;20030;-70
2021/12/10 07:44:36;;;;;;;19.30;9.15;;;0.00;99.90;;;;;;5087243;28;20063;-69
2021/12/10 07:47:09;;;;;;;17.73;9.38;;;0.00;99.90;;;;;;5072988;28;20118;-70
2021/12/10 07:49:37;;;;;;;19.45;9.52;;;0.00;99.90;;;;;;5077873;28;20022;-70
2021/12/10 07:52:06;;;;;;;21.25;9.90;;;0.00;99.90;;;;;;5077051;28;20104;-70
2021/12/10 07:54:32;;;;;;;19.02;10.35;;;0.00;99.90;;;;;;5072339;28;20482;-70
2021/12/10 07:56:58;;;;;;;19.60;9.95;;;0.00;99.90;;;;;;5077916;28;20034;-70
2021/12/10 07:59:24;;;;;;;21.45;10.18;;;0.00;99.90;;;;;;5077475;28;20063;-69
2021/12/10 08:01:51;;;;;;;20.08;9.85;;;0.00;99.90;;;;;;5076577;28;20045;-70
2021/12/10 08:04:16;;;;;;;21.67;11.68;;;0.10;99.90;;;;;;5077689;28;20106;-69
2021/12/10 08:06:42;;;;;;;17.85;10.68;;;0.10;99.90;;;;;;5068557;28;20026;-70
2021/12/10 08:09:09;;;;;;;18.10;10.23;;;0.20;99.90;;;;;;5074194;28;20125;-69
2021/12/10 08:11:37;;;;;;;17.42;10.27;;;0.20;99.90;;;;;;5077531;28;20055;-69
2021/12/10 08:14:02;;;;;;;19.65;9.32;;;0.40;99.90;;;;;;5059686;28;20034;-68
2021/12/10 08:16:30;;;;;;;17.75;9.20;;;0.40;99.90;;;;;;5057835;28;20027;-69
2021/12/10 08:18:57;;;;;;;17.38;8.75;;;0.40;99.90;;;;;;5064253;28;20064;-69
2021/12/10 08:21:24;;;;;;;19.83;9.13;;;0.50;99.90;;;;;;5076233;28;20391;-69
2021/12/10 08:23:50;;;;;;;14.02;8.60;;;0.60;99.90;;;;;;5077747;28;20478;-70
2021/12/10 08:26:16;;;;;;;12.90;8.13;;;0.60;99.90;;;;;;5069368;28;20072;-70
2021/12/10 08:28:42;;;;;;;17.20;8.73;;;0.70;99.90;;;;;;5067160;28;20041;-69
2021/12/10 08:31:09;;;;;;;13.32;8.00;;;0.70;99.90;;;;;;5060268;28;20026;-72
2021/12/10 08:33:35;;;;;;;15.68;8.50;;;0.70;99.90;;;;;;5074895;28;20037;-69
2021/12/10 08:36:06;;;;;;;18.88;9.48;;;0.80;99.90;;;;;;5074948;28;20029;-68
2021/12/10 08:38:32;;;;;;;16.60;9.30;;;0.80;99.90;;;;;;5056943;28;20037;-68
2021/12/10 08:41:09;;;;;;;18.35;10.40;;;0.90;99.90;;;;;;5070604;28;20071;-69
2021/12/10 08:43:35;;;;;;;19.25;9.05;;;0.90;99.90;;;;;;5072309;28;20386;-69
2021/12/10 08:46:02;;;;;;;15.30;9.18;;;1.00;99.90;;;;;;5058514;28;20109;-69
2021/12/10 08:48:29;;;;;;;17.02;7.78;;;1.00;99.90;;;;;;5064867;28;20397;-69
2021/12/10 08:50:58;;;;;;;14.00;7.30;;;1.00;99.90;;;;;;5060633;28;20116;-69
2021/12/10 08:53:24;;;;;;;12.10;7.40;;;1.10;99.90;;;;;;5073127;28;20041;-68
2021/12/10 08:55:52;;;;;;;16.20;8.05;;;1.10;99.90;;;;;;5070324;28;20026;-69
2021/12/10 08:58:19;;;;;;;14.27;7.45;;;1.20;99.90;;;;;;5056418;28;20036;-69
2021/12/10 09:00:50;;;;;;;10.98;6.20;;;1.20;99.90;;;;;;5067084;28;20053;-69
2021/12/10 09:03:16;;;;;;;14.02;7.00;;;1.20;99.90;;;;;;5064500;28;20030;-69
2021/12/10 09:05:42;;;;;;;12.43;6.70;;;1.20;99.90;;;;;;5091135;28;20034;-69
2021/12/10 09:08:09;;;;;;;12.85;6.78;;;1.20;99.90;;;;;;5061978;28;20037;-69
2021/12/10 09:10:37;;;;;;;11.65;7.00;;;1.20;99.90;;;;;;5059046;28;20105;-69
2021/12/10 09:13:13;;;;;;;13.95;6.60;;;1.20;99.90;;;;;;5070384;28;20030;-69
2021/12/10 09:15:50;;;;;;;11.73;6.50;;;1.20;99.90;;;;;;5067135;28;20107;-69
2021/12/10 09:18:17;;;;;;;14.30;7.68;;;1.30;99.90;;;;;;5072819;28;20089;-69
2021/12/10 09:20:46;;;;;;;11.90;6.55;;;1.20;99.90;;;;;;5074087;28;20038;-69
2021/12/10 09:23:16;;;;;;;13.52;6.10;;;1.30;99.90;;;;;;5059067;28;20022;-69
2021/12/10 09:25:43;;;;;;;8.73;5.75;;;1.30;99.90;;;;;;5068330;28;20026;-68
2021/12/10 09:28:10;;;;;;;11.65;5.55;;;1.30;99.90;;;;;;5075502;28;20103;-68
2021/12/10 09:30:37;;;;;;;13.02;5.60;;;1.40;99.90;;;;;;5076197;28;20025;-70
2021/12/10 09:33:03;;;;;;;9.07;5.07;;;1.40;99.90;;;;;;5042838;28;20056;-68
2021/12/10 09:35:32;;;;;;;11.13;5.30;;;1.40;99.90;;;;;;5069450;28;20057;-68
2021/12/10 09:37:58;;;;;;;8.07;4.72;;;1.40;99.90;;;;;;5067025;28;20057;-69
2021/12/10 09:40:28;;;;;;;6.40;4.47;;;1.50;99.90;;;;;;5076626;28;20076;-69
2021/12/10 09:42:55;;;;;;;7.57;4.80;;;1.50;99.90;;;;;;5076131;28;20064;-68
2021/12/10 09:45:23;;;;;;;8.30;4.70;;;1.50;99.90;;;;;;5076087;28;20033;-68
2021/12/10 09:47:50;;;;;;;7.97;5.00;;;1.60;99.90;;;;;;5075340;28;20390;-69
2021/12/10 09:50:17;;;;;;;8.48;4.97;;;1.60;99.90;;;;;;5068001;28;20710;-69
2021/12/10 09:52:43;;;;;;;7.63;4.55;;;1.60;99.90;;;;;;5067262;28;20489;-69
2021/12/10 09:55:13;;;;;;;4.15;3.03;;;1.70;99.90;;;;;;4999603;28;20385;-69
2021/12/10 09:57:40;;;;;;;6.70;3.67;;;1.70;99.90;;;;;;5074363;28;20045;-68
2021/12/10 10:00:21;;;;;;;6.00;3.65;;;1.70;99.90;;;;;;5076493;28;20129;-69
2021/12/10 10:02:47;;;;;;;6.40;3.33;;;1.70;99.90;;;;;;5070986;28;20547;-68
2021/12/10 10:05:13;;;;;;;8.27;3.30;;;1.70;99.90;;;;;;5067377;28;20025;-69
2021/12/10 10:07:39;;;;;;;4.65;3.03;;;1.80;99.90;;;;;;5074401;28;20033;-69
2021/12/10 10:10:15;;;;;;;8.05;3.03;;;1.80;99.90;;;;;;5074243;28;20026;-69
2021/12/10 10:12:46;;;;;;;4.10;2.88;;;1.80;99.90;;;;;;5076796;28;20078;-69
2021/12/10 10:15:18;;;;;;;3.22;2.85;;;1.80;99.90;;;;;;5079581;28;20470;-69
2021/12/10 10:17:44;;;;;;;;;;;1.80;99.90;;;;;;5007835;28;20034;-69
2021/12/10 10:20:13;;;;;;;4.65;2.92;;;1.90;99.90;;;;;;5044926;28;19991;-70
2021/12/10 10:22:39;;;;;;;4.28;2.90;;;1.80;99.90;;;;;;5073105;28;20046;-69
2021/12/10 10:25:08;;;;;;;3.78;2.63;;;1.90;99.90;;;;;;5068150;28;20121;-70
2021/12/10 10:27:36;;;;;;;4.57;2.42;;;1.80;99.90;;;;;;5073828;28;20049;-69
2021/12/10 10:30:32;;;;;;;4.47;2.80;;;1.90;99.90;;;;;;5067056;28;20138;-70
2021/12/10 10:33:02;;;;;;;3.90;2.38;;;1.90;99.90;;;;;;5089605;28;20037;-69
2021/12/10 10:35:41;;;;;;;3.78;2.33;;;1.90;99.90;;;;;;5073184;28;20056;-69
2021/12/10 10:38:09;;;;;;;2.60;2.17;;;1.90;99.90;;;;;;5067635;28;20044;-68
2021/12/10 10:40:40;;;;;;;3.25;1.98;;;2.00;99.90;;;;;;5066269;28;20037;-69
2021/12/10 10:43:07;;;;;;;3.10;2.00;;;2.00;99.90;;;;;;5074516;28;20054;-69
2021/12/10 10:45:36;;;;;;;3.17;1.83;;;2.00;99.90;;;;;;5045793;28;20289;-70
2021/12/10 10:48:03;;;;;;;3.65;2.10;;;2.00;99.90;;;;;;5070050;28;20057;-70
2021/12/10 10:50:36;;;;;;;6.85;3.75;;;2.00;99.90;;;;;;5042033;28;20030;-68
2021/12/10 10:53:09;;;;;;;2.03;1.77;;;2.00;99.90;;;;;;5004871;28;20034;-70
2021/12/10 10:55:50;;;;;;;3.25;2.03;;;2.00;99.90;;;;;;5073285;28;20025;-71
2021/12/10 10:58:17;;;;;;;4.80;2.08;;;2.10;99.90;;;;;;5069982;28;20037;-70
2021/12/10 11:00:58;;;;;;;3.10;1.92;;;2.10;99.90;;;;;;5066183;28;20034;-69
2021/12/10 11:03:36;;;;;;;6.65;2.05;;;2.10;99.90;;;;;;5001696;28;20022;-70
2021/12/10 11:06:11;;;;;;;4.18;2.10;;;2.10;99.90;;;;;;5076985;28;20041;-70
2021/12/10 11:13:33;;;;;;;15.43;10.65;;;2.20;99.90;;;;;;4986214;28;20042;-66
2021/12/10 11:16:08;;;;;;;3.60;1.98;;;2.20;99.90;;;;;;4973329;28;20025;-66
2021/12/10 11:18:46;;;;;;;2.95;1.65;;;2.30;99.90;;;;;;4980698;28;20559;-66
2021/12/10 11:21:12;;;;;;;38.30;22.13;;;2.30;99.90;;;;;;5069216;28;20038;-68
2021/12/10 11:23:39;;;;;;;4.43;2.78;;;2.30;99.90;;;;;;4974750;28;20049;-67
2021/12/10 11:26:06;;;;;;;1.83;1.30;;;2.30;99.90;;;;;;4981300;28;20050;-68
2021/12/10 11:28:35;;;;;;;9.13;5.88;;;2.30;99.90;;;;;;4986112;28;20055;-67
2021/12/10 11:31:21;;;;;;;10.95;8.43;;;2.40;99.90;;;;;;4975362;28;20058;-66
2021/12/10 11:33:50;;;;;;;4.95;2.80;;;2.40;99.90;;;;;;4984054;28;20042;-68
2021/12/10 11:36:23;;;;;;;47.97;26.23;;;2.40;99.90;;;;;;4981480;28;20041;-67
2021/12/10 11:38:55;;;;;;;35.20;21.60;;;2.40;99.90;;;;;;4976119;28;20479;-69
2021/12/10 11:41:26;;;;;;;3.17;2.30;;;2.50;99.90;;;;;;5017570;28;20444;-69
2021/12/10 11:44:19;;;;;;;3.33;1.70;;;2.50;99.90;;;;;;5035667;28;20121;-68
2021/12/10 11:49:39;;;;;;;2.72;0.93;;;2.50;99.90;;;;;;5003104;28;20465;-69
2021/12/10 11:52:25;;;;;;;3.38;1.10;;;2.50;99.90;;;;;;4973856;28;20026;-70
2021/12/10 11:55:05;;;;;;;4.35;1.00;;;2.60;99.90;;;;;;4973842;28;20538;-67
2021/12/10 11:57:37;;;;;;;2.83;1.05;;;2.60;99.90;;;;;;4979231;28;20041;-67
2021/12/10 12:00:05;;;;;;;3.92;2.53;;;2.60;99.90;;;;;;4982443;28;20026;-67
2021/12/10 12:02:47;;;;;;;1.70;1.10;;;2.60;99.90;;;;;;4975521;28;20121;-68
2021/12/10 12:05:17;;;;;;;2.45;1.10;;;2.60;99.90;;;;;;4979418;28;20026;-69
2021/12/10 12:07:54;;;;;;;4.63;1.38;;;2.60;99.90;;;;;;4983936;28;20429;-68
2021/12/10 12:10:42;;;;;;;3.17;0.93;;;2.60;99.90;;;;;;5012698;28;20041;-68
2021/12/10 12:15:56;;;;;;;1.15;1.05;;;2.60;99.90;;;;;;4990641;28;20505;-68
2021/12/10 12:18:52;;;;;;;2.35;0.98;;;2.60;99.90;;;;;;4984301;28;20023;-69
2021/12/10 12:26:50;;;;;;;2.45;0.93;;;2.60;99.90;;;;;;4981169;28;20418;-66
2021/12/10 12:29:17;;;;;;;2.08;1.33;;;2.60;99.90;;;;;;4964248;28;20022;-66
2021/12/10 12:31:47;;;;;;;8.80;2.60;;;2.60;99.90;;;;;;4986134;28;20042;-68
2021/12/10 12:34:18;;;;;;;2.30;1.48;;;2.60;99.90;;;;;;4982950;28;20033;-67
2021/12/10 12:36:49;;;;;;;2.22;1.05;;;2.60;99.90;;;;;;4981331;28;20048;-66
2021/12/10 12:39:31;;;;;;;12.55;4.15;;;2.70;99.90;;;;;;4978981;28;20517;-66
2021/12/10 12:41:59;;;;;;;3.95;2.25;;;2.70;99.90;;;;;;4987405;28;20041;-64
2021/12/10 12:44:39;;;;;;;16.13;10.07;;;2.70;99.90;;;;;;4974127;28;20041;-70
2021/12/10 12:47:12;;;;;;;3.83;1.75;;;2.70;99.90;;;;;;4988965;28;20478;-67
2021/12/10 12:49:47;;;;;;;6.38;3.70;;;2.70;99.90;;;;;;4967069;28;20026;-67
2021/12/10 12:52:18;;;;;;;9.82;4.72;;;2.70;99.90;;;;;;4993165;28;20079;-66
2021/12/10 12:55:20;;;;;;;19.35;5.63;;;2.70;99.90;;;;;;4978144;28;20398;-66
2021/12/10 12:58:13;;;;;;;1.55;1.20;;;2.70;99.90;;;;;;5124084;27;20449;-65
2021/12/10 13:01:04;;;;;;;0.98;0.90;;;2.70;99.90;;;;;;5096186;28;20028;-66
2021/12/10 13:03:45;;;;;;;4.88;1.67;;;2.70;99.90;;;;;;5107929;28;20024;-66
2021/12/10 13:06:16;;;;;;;0.90;0.90;;;2.60;99.90;;;;;;5108013;28;20058;-65
2021/12/10 13:08:45;;;;;;;1.30;1.10;;;2.40;99.90;;;;;;5107101;28;20031;-64
2021/12/10 13:11:28;;;;;;;8.20;3.38;;;2.30;99.90;;;;;;5108011;28;20411;-65
2021/12/10 13:14:13;;;;;;;8.80;3.47;;;2.20;99.90;;;;;;5107554;28;20047;-67
2021/12/10 13:16:50;;;;;;;6.05;2.22;;;2.20;99.90;;;;;;5107505;28;20513;-65
2021/12/10 13:19:23;;;;;;;16.48;10.95;;;2.10;99.90;;;;;;5107251;28;20102;-67
2021/12/10 13:22:15;;;;;;;8.93;4.57;;;2.10;99.90;;;;;;5107373;28;20044;-67
2021/12/10 13:24:44;;;;;;;5.95;2.80;;;2.00;99.90;;;;;;5107684;28;20502;-67
2021/12/10 13:27:11;;;;;;;7.38;2.88;;;1.90;99.90;;;;;;5106365;28;20043;-67
2021/12/10 13:29:37;;;;;;;11.05;3.25;;;1.80;99.90;;;;;;5107278;28;20032;-66